• Join FlightAware (Why Join?)
  • Login
  • US Flag 
10:16AM EST


 

Airport Tracker/Info


-or-


 

Live Flight TrackerFlight Track Log ✈ ACA831 ✈ 27-Jun-2013 ✈ CYUL - CYYZ

Flight Track Log - Related Links

Times and Time Zones

All times are in EDT time to prevent confusion due to time zone crossing. See the ACA831 flight status page for this flight to view local times or setup timezone preferences in your user account.

Time Position Orientation Groundspeed Altitude Reporting Facility
EDT Latitude Longitude Course Direction KTS MPH feet Rate Location/Type
05:03PM 45.4600 -73.7510 335° Northwest 2 2  Level FlightAware
05:05PM 45.4600 -73.7500 90° East 120 Level FlightAware
05:08PM 45.4500 -73.9589 270° West  Level FlightAware Approximate
05:09PM 45.4357 -74.0691 257° West  Level FlightAware Approximate
05:09PM 45.4600 -73.7510 257° West 7 8  Level FlightAware
05:10PM 45.4610 -73.7540 295° West 11 13 300 Level FlightAware
05:12PM 45.4500 -73.9529 270° West  Level FlightAware Approximate
05:12PM 45.4610 -73.7650 257° West 4 5  Level FlightAware
05:13PM 45.4367 -74.0632 257° West  Level FlightAware Approximate
05:13PM 45.4650 -73.7590 46° Northeast 105 121  Level FlightAware
05:13PM 45.4700 -73.7530 40° Northeast 150 173 2,460 Level FlightAware
05:14PM 45.4860 -73.7330 41° Northeast 157 181 1,600 3,300 Climbing FlightAware
05:14PM 45.5030 -73.7110 42° Northeast 166 191 3,200 2,880 Climbing FlightAware
05:14PM 45.5130 -73.7020 32° Northeast 177 204 3,800 1,920 Climbing FlightAware
05:15PM 45.5400 -73.7220 333° Northwest 225 259 4,800 2,220 Climbing FlightAware
05:15PM 45.5510 -73.7640 291° West 255 293 6,200 3,360 Climbing FlightAware
05:16PM 45.5430 -73.8170 258° West 265 305 8,200 3,960 Climbing FlightAware
05:16PM 45.5380 -73.8430 255° West 269 310 9,200 3,060 Climbing FlightAware
05:17PM 45.5200 -73.9240 252° West 307 353 11,300 2,220 Climbing FlightAware
05:18PM 45.5030 -74.0120 255° West 367 422 12,400 2,580 Climbing FlightAware
05:18PM 45.4810 -74.1180 254° West 377 434 15,000 3,360 Climbing FlightAware
05:19PM 45.4630 -74.2040 253° West 389 448 16,900 3,180 Climbing FlightAware
05:20PM 45.4430 -74.3040 254° West 401 461 19,000 3,480 Climbing FlightAware
05:20PM 45.4170 -74.4280 253° West 385 443 22,200 3,120 Climbing FlightAware
05:21PM 45.4000 -74.5300 257° West 400 460 23,700 2,280 Climbing FlightAware
05:22PM 45.3820 -74.6330 256° West 410 472 25,300 2,160 Climbing FlightAware
05:22PM 45.3640 -74.7410 257° West 424 488 26,600 1,800 Climbing FlightAware
05:23PM 45.3470 -74.8470 257° West 433 498 27,800 1,980 Climbing FlightAware
05:24PM 45.3250 -74.9750 256° West 435 501 29,500 2,280 Climbing FlightAware
05:25PM 45.3030 -75.1000 256° West 434 499 31,200 2,100 Climbing FlightAware
05:25PM 45.2810 -75.2250 256° West 431 496 32,700 2,160 Climbing FlightAware
05:26PM 45.2640 -75.3240 256° West 421 484 34,200 2,160 Climbing FlightAware
05:27PM 45.2460 -75.4260 256° West 415 478 35,500 1,200 Climbing FlightAware
05:27PM 45.2240 -75.5510 256° West 409 471 36,000 300 Climbing FlightAware
05:28PM 45.2040 -75.6630 256° West 405 466 36,000  Level FlightAware
05:29PM 45.1850 -75.7690 256° West 406 467 36,000  Level FlightAware
05:30PM 45.1660 -75.8730 256° West 408 470 36,000  Level FlightAware
05:30PM 45.1490 -75.9650 255° West 411 473 36,000  Level FlightAware
05:31PM 45.1260 -76.0900 255° West 413 475 36,000  Level FlightAware
05:32PM 45.1060 -76.1990 255° West 414 476 36,000  Level FlightAware
05:32PM 45.0730 -76.3010 245° Southwest 409 471 36,000  Level FlightAware
05:33PM 45.0360 -76.3960 241° Southwest 410 472 36,000  Level FlightAware
05:34PM 44.9980 -76.4920 241° Southwest 410 472 36,000  Level FlightAware
05:34PM 44.9560 -76.5950 240° Southwest 410 472 36,000  Level FlightAware
05:35PM 44.9170 -76.6930 241° Southwest 410 472 36,000  Level FlightAware
05:36PM 44.8820 -76.7830 241° Southwest 410 472 36,000  Level FlightAware
05:37PM 44.8400 -76.8870 240° Southwest 410 472 36,000  Level FlightAware
05:37PM 44.8050 -76.9730 240° Southwest 409 471 36,000  Level FlightAware
05:38PM 44.7580 -77.0890 240° Southwest 409 471 36,000  Level FlightAware
05:39PM 44.7220 -77.1790 241° Southwest 410 472 36,000  Level FlightAware
05:39PM 44.6840 -77.2720 240° Southwest 410 472 36,000  Level FlightAware
05:40PM 44.6370 -77.3870 240° Southwest 411 473 36,000  Level FlightAware
05:41PM 44.6010 -77.4750 240° Southwest 411 473 36,000  Level FlightAware
05:41PM 44.5590 -77.5780 240° Southwest 411 473 36,000  Level FlightAware
05:42PM 44.5200 -77.6720 240° Southwest 412 474 36,000  Level FlightAware
05:43PM 44.4820 -77.7640 240° Southwest 412 474 36,000  Level FlightAware
05:44PM 44.4410 -77.8620 240° Southwest 414 476 36,000 -1,500 Level FlightAware
05:44PM 44.4060 -77.9470 240° Southwest 423 487 34,000 -3,720 Descending FlightAware
05:45PM 44.3470 -78.0870 240° Southwest 448 516 30,000 -4,260 Descending FlightAware
05:46PM 44.3040 -78.1910 240° Southwest 461 531 27,000 -4,560 Descending FlightAware
05:47PM 44.2560 -78.3050 240° Southwest 472 543 23,600 -4,380 Descending FlightAware
05:47PM 44.2140 -78.4030 239° Southwest 473 544 20,800 -3,540 Descending FlightAware
05:48PM 44.1630 -78.5230 239° Southwest 450 518 18,600 -1,740 Descending FlightAware
05:49PM 44.1450 -78.6290 257° West 387 445 18,400 -300 Descending FlightAware
05:49PM 44.1530 -78.7210 277° West 341 392 18,200 -600 Descending FlightAware
05:50PM 44.1440 -78.7830 259° West 330 380 17,700 -1,080 Descending FlightAware
05:50PM 44.1320 -78.8070 235° Southwest 328 377 17,400 -1,320 Descending FlightAware
05:51PM 44.0850 -78.8560 217° Southwest 318 366 16,500 -1,800 Descending FlightAware
05:51PM 44.0290 -78.9100 215° Southwest 311 358 14,900 -2,400 Descending FlightAware
05:52PM 43.9820 -78.9550 215° Southwest 305 351 13,100 -2,700 Descending FlightAware
05:53PM 43.9150 -79.0190 215° Southwest 298 343 10,400 -2,700 Descending FlightAware
05:54PM 43.8870 -79.0480 217° Southwest 292 336 9,300 -2,580 Descending FlightAware
05:54PM 43.8780 -79.0630 230° Southwest 290 334 8,900 -2,400 Descending FlightAware
05:54PM 43.8710 -79.0990 255° West 288 331 8,100 -1,920 Descending FlightAware
05:54PM 43.8720 -79.1420 272° West 290 334 7,500 -1,380 Descending FlightAware
05:55PM 43.8720 -79.1730 270° West 287 330 7,200 -420 Descending FlightAware
05:55PM 43.8730 -79.2220 272° West 258 297 7,200 -600 Level FlightAware
05:56PM 43.8750 -79.2730 273° West 253 291 6,600 -1,200 Descending FlightAware
05:56PM 43.8700 -79.3110 260° West 245 282 6,100 -1,080 Descending FlightAware
05:56PM 43.8600 -79.3290 232° Southwest 241 277 5,900 -1,080 Descending FlightAware
05:57PM 43.8440 -79.3520 226° Southwest 237 273 5,500 -900 Descending FlightAware
05:57PM 43.8190 -79.3880 226° Southwest 214 246 5,100 -1,020 Descending FlightAware
05:58PM 43.8030 -79.4110 226° Southwest 214 246 4,500 -1,440 Descending FlightAware
05:58PM 43.7920 -79.4270 226° Southwest 215 247 4,100 -900 Descending FlightAware
05:58PM 43.7760 -79.4510 227° Southwest 196 226 3,900 -900 Descending FlightAware
05:59PM 43.7500 -79.4890 227° Southwest 173 199 3,100 -1,140 Descending FlightAware
06:00PM 43.7350 -79.5110 227° Southwest 164 189 2,500 -1,140 Descending FlightAware
06:00PM 43.7210 -79.5310 226° Southwest 157 181 2,100 -840 Descending FlightAware
06:00PM 43.7090 -79.5490 227° Southwest 152 175 1,800 -840 Descending FlightAware
06:01PM 43.6920 -79.5740 227° Southwest 148 170 1,300 -780 Descending FlightAware
06:01PM 43.6840 -79.5840 222° Southwest 145 167 1,100 -600 Descending FlightAware